sensor_id;sensor_type;location;lat;lon;timestamp;temperature;humidity
68217;DHT22;55037;52.354;4.992;2023-04-03T00:01:14;7.10;60.80
68217;DHT22;55037;52.354;4.992;2023-04-03T00:03:42;7.10;60.80
68217;DHT22;55037;52.354;4.992;2023-04-03T00:06:11;7.10;61.80
68217;DHT22;55037;52.354;4.992;2023-04-03T00:08:39;7.10;60.90
68217;DHT22;55037;52.354;4.992;2023-04-03T00:11:08;7.00;60.80
68217;DHT22;55037;52.354;4.992;2023-04-03T00:13:35;7.10;60.80
68217;DHT22;55037;52.354;4.992;2023-04-03T00:16:03;7.00;60.80
68217;DHT22;55037;52.354;4.992;2023-04-03T00:18:30;7.00;61.30
68217;DHT22;55037;52.354;4.992;2023-04-03T00:20:58;7.00;60.80
68217;DHT22;55037;52.354;4.992;2023-04-03T00:23:25;7.00;60.90
68217;DHT22;55037;52.354;4.992;2023-04-03T00:25:52;7.00;60.80
68217;DHT22;55037;52.354;4.992;2023-04-03T00:28:20;6.90;60.80
68217;DHT22;55037;52.354;4.992;2023-04-03T00:30:51;6.90;61.20
68217;DHT22;55037;52.354;4.992;2023-04-03T00:33:19;6.90;61.30
68217;DHT22;55037;52.354;4.992;2023-04-03T00:35:49;6.80;61.50
68217;DHT22;55037;52.354;4.992;2023-04-03T00:38:17;6.80;61.50
68217;DHT22;55037;52.354;4.992;2023-04-03T00:40:47;6.80;62.00
68217;DHT22;55037;52.354;4.992;2023-04-03T00:43:24;6.80;61.90
68217;DHT22;55037;52.354;4.992;2023-04-03T00:45:53;6.70;62.20
68217;DHT22;55037;52.354;4.992;2023-04-03T00:51:07;6.70;62.00
68217;DHT22;55037;52.354;4.992;2023-04-03T00:54:02;6.60;62.10
68217;DHT22;55037;52.354;4.992;2023-04-03T00:56:28;6.60;62.70
68217;DHT22;55037;52.354;4.992;2023-04-03T00:59:12;6.60;62.70
68217;DHT22;55037;52.354;4.992;2023-04-03T01:01:42;6.60;62.60
68217;DHT22;55037;52.354;4.992;2023-04-03T01:04:30;6.50;62.80
68217;DHT22;55037;52.354;4.992;2023-04-03T01:07:10;6.50;62.80
68217;DHT22;55037;52.354;4.992;2023-04-03T01:09:38;6.40;62.90
68217;DHT22;55037;52.354;4.992;2023-04-03T01:12:22;6.40;63.10
68217;DHT22;55037;52.354;4.992;2023-04-03T01:14:53;6.40;63.30
68217;DHT22;55037;52.354;4.992;2023-04-03T01:17:43;6.40;63.40
68217;DHT22;55037;52.354;4.992;2023-04-03T01:25:14;6.30;64.10
68217;DHT22;55037;52.354;4.992;2023-04-03T01:27:41;6.30;64.30
68217;DHT22;55037;52.354;4.992;2023-04-03T01:30:09;6.30;64.60
68217;DHT22;55037;52.354;4.992;2023-04-03T01:32:37;6.30;64.50
68217;DHT22;55037;52.354;4.992;2023-04-03T01:35:08;6.30;64.80
68217;DHT22;55037;52.354;4.992;2023-04-03T01:37:35;6.30;64.90
68217;DHT22;55037;52.354;4.992;2023-04-03T01:40:03;6.30;64.70
68217;DHT22;55037;52.354;4.992;2023-04-03T01:42:31;6.20;64.60
68217;DHT22;55037;52.354;4.992;2023-04-03T01:44:58;6.20;64.70
68217;DHT22;55037;52.354;4.992;2023-04-03T01:47:25;6.20;64.70
68217;DHT22;55037;52.354;4.992;2023-04-03T01:49:53;6.10;64.80
68217;DHT22;55037;52.354;4.992;2023-04-03T01:52:20;6.10;65.10
68217;DHT22;55037;52.354;4.992;2023-04-03T01:54:47;6.10;65.10
68217;DHT22;55037;52.354;4.992;2023-04-03T01:57:14;6.00;65.30
68217;DHT22;55037;52.354;4.992;2023-04-03T01:59:43;6.10;65.40
68217;DHT22;55037;52.354;4.992;2023-04-03T02:02:10;6.00;66.00
68217;DHT22;55037;52.354;4.992;2023-04-03T02:04:39;6.00;66.00
68217;DHT22;55037;52.354;4.992;2023-04-03T02:07:06;6.00;66.00
68217;DHT22;55037;52.354;4.992;2023-04-03T02:09:34;6.00;65.90
68217;DHT22;55037;52.354;4.992;2023-04-03T02:12:02;6.00;66.10
68217;DHT22;55037;52.354;4.992;2023-04-03T02:14:30;5.90;66.30
68217;DHT22;55037;52.354;4.992;2023-04-03T02:16:57;5.90;66.20
68217;DHT22;55037;52.354;4.992;2023-04-03T02:19:25;5.90;66.60
68217;DHT22;55037;52.354;4.992;2023-04-03T02:21:52;5.90;66.70
68217;DHT22;55037;52.354;4.992;2023-04-03T02:24:19;5.90;66.70
68217;DHT22;55037;52.354;4.992;2023-04-03T02:26:46;5.90;66.80
68217;DHT22;55037;52.354;4.992;2023-04-03T02:29:14;5.80;66.70
68217;DHT22;55037;52.354;4.992;2023-04-03T02:31:41;5.80;66.90
68217;DHT22;55037;52.354;4.992;2023-04-03T02:34:08;5.80;67.10
68217;DHT22;55037;52.354;4.992;2023-04-03T02:36:36;5.80;67.00
68217;DHT22;55037;52.354;4.992;2023-04-03T02:39:07;5.80;67.30
68217;DHT22;55037;52.354;4.992;2023-04-03T02:41:35;5.80;67.60
68217;DHT22;55037;52.354;4.992;2023-04-03T02:44:07;5.80;67.60
68217;DHT22;55037;52.354;4.992;2023-04-03T02:46:36;5.80;67.20
68217;DHT22;55037;52.354;4.992;2023-04-03T02:49:04;5.70;67.90
68217;DHT22;55037;52.354;4.992;2023-04-03T02:51:32;5.80;67.70
68217;DHT22;55037;52.354;4.992;2023-04-03T02:53:59;5.70;67.90
68217;DHT22;55037;52.354;4.992;2023-04-03T02:56:30;5.70;67.10
68217;DHT22;55037;52.354;4.992;2023-04-03T02:58:57;5.70;67.80
68217;DHT22;55037;52.354;4.992;2023-04-03T03:01:25;5.70;67.70
68217;DHT22;55037;52.354;4.992;2023-04-03T03:03:55;5.60;67.80
68217;DHT22;55037;52.354;4.992;2023-04-03T03:06:23;5.60;67.40
68217;DHT22;55037;52.354;4.992;2023-04-03T03:08:50;5.60;69.10
68217;DHT22;55037;52.354;4.992;2023-04-03T03:11:18;5.60;68.20
68217;DHT22;55037;52.354;4.992;2023-04-03T03:13:45;5.60;68.30
68217;DHT22;55037;52.354;4.992;2023-04-03T03:16:13;5.60;68.60
68217;DHT22;55037;52.354;4.992;2023-04-03T03:18:40;5.60;68.70
68217;DHT22;55037;52.354;4.992;2023-04-03T03:21:09;5.60;69.00
68217;DHT22;55037;52.354;4.992;2023-04-03T03:23:37;5.50;68.90
68217;DHT22;55037;52.354;4.992;2023-04-03T03:26:07;5.50;69.00
68217;DHT22;55037;52.354;4.992;2023-04-03T03:28:37;5.50;69.20
68217;DHT22;55037;52.354;4.992;2023-04-03T03:31:06;5.50;69.20
68217;DHT22;55037;52.354;4.992;2023-04-03T03:33:35;5.50;69.30
68217;DHT22;55037;52.354;4.992;2023-04-03T03:36:02;5.50;69.60
68217;DHT22;55037;52.354;4.992;2023-04-03T03:38:30;5.50;69.50
68217;DHT22;55037;52.354;4.992;2023-04-03T03:40:59;5.50;70.00
68217;DHT22;55037;52.354;4.992;2023-04-03T03:43:27;5.50;69.70
68217;DHT22;55037;52.354;4.992;2023-04-03T03:45:55;5.50;70.00
68217;DHT22;55037;52.354;4.992;2023-04-03T03:48:23;5.50;69.90
68217;DHT22;55037;52.354;4.992;2023-04-03T03:50:51;5.50;70.10
68217;DHT22;55037;52.354;4.992;2023-04-03T03:53:22;5.50;69.90
68217;DHT22;55037;52.354;4.992;2023-04-03T03:55:52;5.50;70.00
68217;DHT22;55037;52.354;4.992;2023-04-03T03:58:22;5.50;70.30
68217;DHT22;55037;52.354;4.992;2023-04-03T04:00:50;5.50;70.50
68217;DHT22;55037;52.354;4.992;2023-04-03T04:03:17;5.40;70.10
68217;DHT22;55037;52.354;4.992;2023-04-03T04:05:47;5.40;70.20
68217;DHT22;55037;52.354;4.992;2023-04-03T04:08:15;5.40;70.30
68217;DHT22;55037;52.354;4.992;2023-04-03T04:10:44;5.40;70.60
68217;DHT22;55037;52.354;4.992;2023-04-03T04:13:13;5.40;70.90
68217;DHT22;55037;52.354;4.992;2023-04-03T04:15:42;5.40;71.00
68217;DHT22;55037;52.354;4.992;2023-04-03T04:18:09;5.40;70.70
68217;DHT22;55037;52.354;4.992;2023-04-03T04:20:37;5.40;70.70
68217;DHT22;55037;52.354;4.992;2023-04-03T04:23:04;5.40;70.70
68217;DHT22;55037;52.354;4.992;2023-04-03T04:25:32;5.30;71.00
68217;DHT22;55037;52.354;4.992;2023-04-03T04:28:00;5.30;71.00
68217;DHT22;55037;52.354;4.992;2023-04-03T04:30:27;5.30;71.00
68217;DHT22;55037;52.354;4.992;2023-04-03T04:32:56;5.30;71.00
68217;DHT22;55037;52.354;4.992;2023-04-03T04:35:24;5.30;70.90
68217;DHT22;55037;52.354;4.992;2023-04-03T04:37:52;5.30;71.00
68217;DHT22;55037;52.354;4.992;2023-04-03T04:40:20;5.20;71.00
68217;DHT22;55037;52.354;4.992;2023-04-03T04:42:48;5.20;71.00
68217;DHT22;55037;52.354;4.992;2023-04-03T04:45:16;5.20;70.90
68217;DHT22;55037;52.354;4.992;2023-04-03T04:47:45;5.20;71.10
68217;DHT22;55037;52.354;4.992;2023-04-03T04:50:13;5.20;71.20
68217;DHT22;55037;52.354;4.992;2023-04-03T04:52:40;5.20;71.30
68217;DHT22;55037;52.354;4.992;2023-04-03T04:55:08;5.20;72.20
68217;DHT22;55037;52.354;4.992;2023-04-03T04:57:35;5.10;71.30
68217;DHT22;55037;52.354;4.992;2023-04-03T05:00:05;5.10;71.50
68217;DHT22;55037;52.354;4.992;2023-04-03T05:02:32;5.10;71.50
68217;DHT22;55037;52.354;4.992;2023-04-03T05:05:00;5.10;71.50
68217;DHT22;55037;52.354;4.992;2023-04-03T05:07:30;5.10;71.50
68217;DHT22;55037;52.354;4.992;2023-04-03T05:09:59;5.10;71.50
68217;DHT22;55037;52.354;4.992;2023-04-03T05:12:27;5.10;71.50
68217;DHT22;55037;52.354;4.992;2023-04-03T05:14:59;5.10;71.60
68217;DHT22;55037;52.354;4.992;2023-04-03T05:17:28;5.10;71.80
68217;DHT22;55037;52.354;4.992;2023-04-03T05:19:56;5.10;71.60
68217;DHT22;55037;52.354;4.992;2023-04-03T05:22:26;5.10;71.80
68217;DHT22;55037;52.354;4.992;2023-04-03T05:24:57;5.10;71.80
68217;DHT22;55037;52.354;4.992;2023-04-03T05:27:27;5.10;71.70
68217;DHT22;55037;52.354;4.992;2023-04-03T05:29:57;5.20;71.50
68217;DHT22;55037;52.354;4.992;2023-04-03T05:32:25;5.20;71.50
68217;DHT22;55037;52.354;4.992;2023-04-03T05:35:07;5.20;71.60
68217;DHT22;55037;52.354;4.992;2023-04-03T05:37:35;5.20;71.60
68217;DHT22;55037;52.354;4.992;2023-04-03T05:40:04;5.20;71.70
68217;DHT22;55037;52.354;4.992;2023-04-03T05:42:33;5.20;71.50
68217;DHT22;55037;52.354;4.992;2023-04-03T05:45:00;5.30;71.50
68217;DHT22;55037;52.354;4.992;2023-04-03T05:47:27;5.30;71.40
68217;DHT22;55037;52.354;4.992;2023-04-03T05:49:55;5.40;71.50
68217;DHT22;55037;52.354;4.992;2023-04-03T05:52:28;5.40;71.30
68217;DHT22;55037;52.354;4.992;2023-04-03T05:54:56;5.50;71.10
68217;DHT22;55037;52.354;4.992;2023-04-03T05:57:27;5.50;71.10
68217;DHT22;55037;52.354;4.992;2023-04-03T05:59:54;5.60;71.10
68217;DHT22;55037;52.354;4.992;2023-04-03T06:02:23;5.60;71.00
68217;DHT22;55037;52.354;4.992;2023-04-03T06:04:52;5.60;70.80
68217;DHT22;55037;52.354;4.992;2023-04-03T06:07:21;5.60;70.80
68217;DHT22;55037;52.354;4.992;2023-04-03T06:09:50;5.70;70.90
68217;DHT22;55037;52.354;4.992;2023-04-03T06:12:21;5.70;70.70
68217;DHT22;55037;52.354;4.992;2023-04-03T06:14:48;5.70;70.60
68217;DHT22;55037;52.354;4.992;2023-04-03T06:17:16;5.80;70.50
68217;DHT22;55037;52.354;4.992;2023-04-03T06:19:45;5.80;70.40
68217;DHT22;55037;52.354;4.992;2023-04-03T06:22:13;5.90;70.30
68217;DHT22;55037;52.354;4.992;2023-04-03T06:24:40;6.00;70.20
68217;DHT22;55037;52.354;4.992;2023-04-03T06:27:08;6.00;70.10
68217;DHT22;55037;52.354;4.992;2023-04-03T06:29:36;6.10;69.90
68217;DHT22;55037;52.354;4.992;2023-04-03T06:32:04;6.10;69.80
68217;DHT22;55037;52.354;4.992;2023-04-03T06:34:31;6.10;69.60
68217;DHT22;55037;52.354;4.992;2023-04-03T06:36:59;6.20;69.30
68217;DHT22;55037;52.354;4.992;2023-04-03T06:39:26;6.20;69.30
68217;DHT22;55037;52.354;4.992;2023-04-03T06:41:54;6.30;69.30
68217;DHT22;55037;52.354;4.992;2023-04-03T06:44:37;6.30;69.20
68217;DHT22;55037;52.354;4.992;2023-04-03T06:47:05;6.30;69.00
68217;DHT22;55037;52.354;4.992;2023-04-03T06:49:32;6.40;69.00
68217;DHT22;55037;52.354;4.992;2023-04-03T06:52:00;6.40;68.90
68217;DHT22;55037;52.354;4.992;2023-04-03T06:54:28;6.40;68.80
68217;DHT22;55037;52.354;4.992;2023-04-03T06:56:56;6.50;68.80
68217;DHT22;55037;52.354;4.992;2023-04-03T06:59:23;6.60;68.70
68217;DHT22;55037;52.354;4.992;2023-04-03T07:01:50;6.60;68.50
68217;DHT22;55037;52.354;4.992;2023-04-03T07:04:18;6.70;68.30
68217;DHT22;55037;52.354;4.992;2023-04-03T07:06:47;6.70;68.10
68217;DHT22;55037;52.354;4.992;2023-04-03T07:09:15;6.70;68.00
68217;DHT22;55037;52.354;4.992;2023-04-03T07:11:42;6.70;68.00
68217;DHT22;55037;52.354;4.992;2023-04-03T07:14:09;6.80;67.90
68217;DHT22;55037;52.354;4.992;2023-04-03T07:16:36;6.90;67.80
68217;DHT22;55037;52.354;4.992;2023-04-03T07:19:07;6.90;67.70
68217;DHT22;55037;52.354;4.992;2023-04-03T07:21:36;7.00;67.40
68217;DHT22;55037;52.354;4.992;2023-04-03T07:24:03;7.00;67.40
68217;DHT22;55037;52.354;4.992;2023-04-03T07:26:30;7.10;66.50
68217;DHT22;55037;52.354;4.992;2023-04-03T07:28:58;7.10;67.30
68217;DHT22;55037;52.354;4.992;2023-04-03T07:31:26;7.20;67.00
68217;DHT22;55037;52.354;4.992;2023-04-03T07:33:54;7.20;66.80
68217;DHT22;55037;52.354;4.992;2023-04-03T07:36:23;7.40;65.80
68217;DHT22;55037;52.354;4.992;2023-04-03T07:38:50;7.40;66.60
68217;DHT22;55037;52.354;4.992;2023-04-03T07:41:19;7.50;66.30
68217;DHT22;55037;52.354;4.992;2023-04-03T07:43:49;7.60;66.00
68217;DHT22;55037;52.354;4.992;2023-04-03T07:46:16;7.60;65.60
68217;DHT22;55037;52.354;4.992;2023-04-03T07:48:44;7.70;65.50
68217;DHT22;55037;52.354;4.992;2023-04-03T07:51:12;7.70;65.60
68217;DHT22;55037;52.354;4.992;2023-04-03T07:53:40;7.80;65.10
68217;DHT22;55037;52.354;4.992;2023-04-03T07:56:08;7.80;65.20
68217;DHT22;55037;52.354;4.992;2023-04-03T07:58:35;8.00;65.30
68217;DHT22;55037;52.354;4.992;2023-04-03T08:01:04;8.20;65.10
68217;DHT22;55037;52.354;4.992;2023-04-03T08:03:31;8.30;64.40
68217;DHT22;55037;52.354;4.992;2023-04-03T08:06:06;8.40;63.80
68217;DHT22;55037;52.354;4.992;2023-04-03T08:08:41;8.50;63.50
68217;DHT22;55037;52.354;4.992;2023-04-03T08:11:09;8.60;63.10
68217;DHT22;55037;52.354;4.992;2023-04-03T08:13:37;8.70;62.80
68217;DHT22;55037;52.354;4.992;2023-04-03T08:16:10;8.80;62.60
68217;DHT22;55037;52.354;4.992;2023-04-03T08:18:38;8.90;61.80
68217;DHT22;55037;52.354;4.992;2023-04-03T08:21:08;9.00;61.30
68217;DHT22;55037;52.354;4.992;2023-04-03T08:23:36;9.10;61.30
68217;DHT22;55037;52.354;4.992;2023-04-03T08:26:14;9.20;60.90
68217;DHT22;55037;52.354;4.992;2023-04-03T08:28:42;9.40;60.50
68217;DHT22;55037;52.354;4.992;2023-04-03T08:31:14;9.50;60.30
68217;DHT22;55037;52.354;4.992;2023-04-03T08:33:41;9.80;59.90
68217;DHT22;55037;52.354;4.992;2023-04-03T08:36:18;9.90;59.00
68217;DHT22;55037;52.354;4.992;2023-04-03T08:38:46;10.00;57.90
68217;DHT22;55037;52.354;4.992;2023-04-03T08:41:40;10.10;56.80
68217;DHT22;55037;52.354;4.992;2023-04-03T08:49:33;10.70;56.00
68217;DHT22;55037;52.354;4.992;2023-04-03T08:52:08;11.50;57.00
68217;DHT22;55037;52.354;4.992;2023-04-03T08:54:55;14.00;51.60
68217;DHT22;55037;52.354;4.992;2023-04-03T08:57:39;17.10;47.50
68217;DHT22;55037;52.354;4.992;2023-04-03T09:00:20;20.70;39.90
68217;DHT22;55037;52.354;4.992;2023-04-03T09:02:53;23.70;33.90
68217;DHT22;55037;52.354;4.992;2023-04-03T09:11:20;27.20;25.80
68217;DHT22;55037;52.354;4.992;2023-04-03T09:14:07;27.20;25.00
68217;DHT22;55037;52.354;4.992;2023-04-03T09:22:17;20.90;27.00
68217;DHT22;55037;52.354;4.992;2023-04-03T09:24:48;18.60;28.30
68217;DHT22;55037;52.354;4.992;2023-04-03T09:27:17;17.20;29.60
68217;DHT22;55037;52.354;4.992;2023-04-03T09:29:44;16.70;30.80
68217;DHT22;55037;52.354;4.992;2023-04-03T09:32:29;17.10;30.40
68217;DHT22;55037;52.354;4.992;2023-04-03T09:35:02;18.70;28.60
68217;DHT22;55037;52.354;4.992;2023-04-03T09:37:49;20.90;26.60
68217;DHT22;55037;52.354;4.992;2023-04-03T09:42:58;25.80;21.40
68217;DHT22;55037;52.354;4.992;2023-04-03T09:45:33;26.10;21.20
68217;DHT22;55037;52.354;4.992;2023-04-03T09:51:01;27.30;19.50
68217;DHT22;55037;52.354;4.992;2023-04-03T09:53:43;28.50;18.70
68217;DHT22;55037;52.354;4.992;2023-04-03T09:58:49;30.50;16.90
68217;DHT22;55037;52.354;4.992;2023-04-03T10:06:46;32.50;16.20
68217;DHT22;55037;52.354;4.992;2023-04-03T10:09:21;33.40;16.00
68217;DHT22;55037;52.354;4.992;2023-04-03T10:12:11;33.60;15.30
68217;DHT22;55037;52.354;4.992;2023-04-03T10:14:57;34.00;14.50
68217;DHT22;55037;52.354;4.992;2023-04-03T10:20:39;34.40;13.70
68217;DHT22;55037;52.354;4.992;2023-04-03T10:23:17;34.20;12.20
68217;DHT22;55037;52.354;4.992;2023-04-03T10:31:18;33.60;13.30
68217;DHT22;55037;52.354;4.992;2023-04-03T10:42:02;34.60;12.60
68217;DHT22;55037;52.354;4.992;2023-04-03T10:45:03;34.60;12.30
68217;DHT22;55037;52.354;4.992;2023-04-03T10:53:26;34.90;11.50
68217;DHT22;55037;52.354;4.992;2023-04-03T10:56:18;34.70;11.30
68217;DHT22;55037;52.354;4.992;2023-04-03T10:59:08;34.60;11.50
68217;DHT22;55037;52.354;4.992;2023-04-03T11:01:42;34.80;12.30
68217;DHT22;55037;52.354;4.992;2023-04-03T11:04:11;35.30;11.90
68217;DHT22;55037;52.354;4.992;2023-04-03T11:06:49;36.20;11.20
68217;DHT22;55037;52.354;4.992;2023-04-03T11:09:23;36.80;11.30
68217;DHT22;55037;52.354;4.992;2023-04-03T11:11:57;37.90;11.40
68217;DHT22;55037;52.354;4.992;2023-04-03T11:14:31;37.80;9.80
68217;DHT22;55037;52.354;4.992;2023-04-03T11:17:21;37.10;10.40
68217;DHT22;55037;52.354;4.992;2023-04-03T11:20:18;37.20;10.40
68217;DHT22;55037;52.354;4.992;2023-04-03T11:25:42;36.40;10.00
68217;DHT22;55037;52.354;4.992;2023-04-03T11:28:13;36.00;10.80
68217;DHT22;55037;52.354;4.992;2023-04-03T11:30:53;35.90;10.10
68217;DHT22;55037;52.354;4.992;2023-04-03T11:36:23;36.20;10.50
68217;DHT22;55037;52.354;4.992;2023-04-03T11:39:13;36.40;10.30
68217;DHT22;55037;52.354;4.992;2023-04-03T11:41:42;36.00;10.20
68217;DHT22;55037;52.354;4.992;2023-04-03T11:44:35;36.20;10.50
68217;DHT22;55037;52.354;4.992;2023-04-03T11:47:05;36.60;10.50
68217;DHT22;55037;52.354;4.992;2023-04-03T11:49:57;37.10;10.40
68217;DHT22;55037;52.354;4.992;2023-04-03T12:11:29;36.20;9.90
68217;DHT22;55037;52.354;4.992;2023-04-03T12:16:43;35.70;10.00
68217;DHT22;55037;52.354;4.992;2023-04-03T12:29:38;36.90;10.30
68217;DHT22;55037;52.354;4.992;2023-04-03T12:35:15;36.20;9.80
68217;DHT22;55037;52.354;4.992;2023-04-03T12:40:57;35.50;10.30
68217;DHT22;55037;52.354;4.992;2023-04-03T12:43:38;35.10;10.30
68217;DHT22;55037;52.354;4.992;2023-04-03T12:54:20;34.90;10.40
68217;DHT22;55037;52.354;4.992;2023-04-03T12:56:50;34.70;10.80
68217;DHT22;55037;52.354;4.992;2023-04-03T12:59:23;34.30;10.60
68217;DHT22;55037;52.354;4.992;2023-04-03T13:01:59;34.20;10.80
68217;DHT22;55037;52.354;4.992;2023-04-03T13:04:31;34.40;10.40
68217;DHT22;55037;52.354;4.992;2023-04-03T13:06:58;34.40;11.00
68217;DHT22;55037;52.354;4.992;2023-04-03T13:09:28;34.50;10.90
68217;DHT22;55037;52.354;4.992;2023-04-03T13:12:00;34.10;10.50
68217;DHT22;55037;52.354;4.992;2023-04-03T13:14:28;33.70;10.80
68217;DHT22;55037;52.354;4.992;2023-04-03T13:16:59;33.70;10.90
68217;DHT22;55037;52.354;4.992;2023-04-03T13:19:30;33.70;11.10
68217;DHT22;55037;52.354;4.992;2023-04-03T13:22:04;33.70;11.30
68217;DHT22;55037;52.354;4.992;2023-04-03T13:24:36;33.80;11.20
68217;DHT22;55037;52.354;4.992;2023-04-03T13:27:05;34.10;11.50
68217;DHT22;55037;52.354;4.992;2023-04-03T13:29:35;34.40;11.30
68217;DHT22;55037;52.354;4.992;2023-04-03T13:32:04;34.80;11.20
68217;DHT22;55037;52.354;4.992;2023-04-03T13:34:41;35.00;11.20
68217;DHT22;55037;52.354;4.992;2023-04-03T13:37:32;34.80;11.20
68217;DHT22;55037;52.354;4.992;2023-04-03T13:40:19;35.00;11.60
68217;DHT22;55037;52.354;4.992;2023-04-03T13:42:59;35.00;11.40
68217;DHT22;55037;52.354;4.992;2023-04-03T13:45:29;34.70;11.10
68217;DHT22;55037;52.354;4.992;2023-04-03T13:48:17;33.90;11.40
68217;DHT22;55037;52.354;4.992;2023-04-03T13:51:00;33.30;11.30
68217;DHT22;55037;52.354;4.992;2023-04-03T13:53:31;33.00;11.90
68217;DHT22;55037;52.354;4.992;2023-04-03T13:56:08;32.90;12.00
68217;DHT22;55037;52.354;4.992;2023-04-03T13:58:36;32.90;11.80
68217;DHT22;55037;52.354;4.992;2023-04-03T14:01:21;33.00;12.10
68217;DHT22;55037;52.354;4.992;2023-04-03T14:03:58;33.00;12.30
68217;DHT22;55037;52.354;4.992;2023-04-03T14:06:25;32.90;12.00
68217;DHT22;55037;52.354;4.992;2023-04-03T14:08:53;32.30;12.30
68217;DHT22;55037;52.354;4.992;2023-04-03T14:11:27;31.80;12.40
68217;DHT22;55037;52.354;4.992;2023-04-03T14:14:11;31.50;12.60
68217;DHT22;55037;52.354;4.992;2023-04-03T14:16:41;30.90;12.90
68217;DHT22;55037;52.354;4.992;2023-04-03T14:19:22;30.60;13.00
68217;DHT22;55037;52.354;4.992;2023-04-03T14:21:51;30.10;12.80
68217;DHT22;55037;52.354;4.992;2023-04-03T14:24:20;29.60;13.10
68217;DHT22;55037;52.354;4.992;2023-04-03T14:26:49;28.90;13.30
68217;DHT22;55037;52.354;4.992;2023-04-03T14:29:17;28.30;13.50
68217;DHT22;55037;52.354;4.992;2023-04-03T14:31:46;28.00;13.80
68217;DHT22;55037;52.354;4.992;2023-04-03T14:34:14;27.50;13.80
68217;DHT22;55037;52.354;4.992;2023-04-03T14:36:43;27.00;14.10
68217;DHT22;55037;52.354;4.992;2023-04-03T14:39:16;26.50;14.40
68217;DHT22;55037;52.354;4.992;2023-04-03T14:41:45;26.40;14.70
68217;DHT22;55037;52.354;4.992;2023-04-03T14:44:13;26.50;14.70
68217;DHT22;55037;52.354;4.992;2023-04-03T14:46:43;26.30;14.70
68217;DHT22;55037;52.354;4.992;2023-04-03T14:49:27;26.00;15.00
68217;DHT22;55037;52.354;4.992;2023-04-03T14:51:57;25.60;15.00
68217;DHT22;55037;52.354;4.992;2023-04-03T14:54:24;25.30;15.20
68217;DHT22;55037;52.354;4.992;2023-04-03T14:56:55;25.20;15.30
68217;DHT22;55037;52.354;4.992;2023-04-03T14:59:30;25.20;15.50
68217;DHT22;55037;52.354;4.992;2023-04-03T15:01:58;25.10;15.50
68217;DHT22;55037;52.354;4.992;2023-04-03T15:04:26;24.80;15.50
68217;DHT22;55037;52.354;4.992;2023-04-03T15:06:55;24.60;15.80
68217;DHT22;55037;52.354;4.992;2023-04-03T15:09:24;24.50;15.50
68217;DHT22;55037;52.354;4.992;2023-04-03T15:11:53;24.40;15.80
68217;DHT22;55037;52.354;4.992;2023-04-03T15:14:21;24.30;16.00
68217;DHT22;55037;52.354;4.992;2023-04-03T15:17:08;24.30;16.20
68217;DHT22;55037;52.354;4.992;2023-04-03T15:19:38;23.90;16.30
68217;DHT22;55037;52.354;4.992;2023-04-03T15:22:06;23.40;16.30
68217;DHT22;55037;52.354;4.992;2023-04-03T15:24:33;22.90;16.70
68217;DHT22;55037;52.354;4.992;2023-04-03T15:27:00;22.70;16.90
68217;DHT22;55037;52.354;4.992;2023-04-03T15:29:28;22.50;17.10
68217;DHT22;55037;52.354;4.992;2023-04-03T15:31:55;22.60;17.30
68217;DHT22;55037;52.354;4.992;2023-04-03T15:34:23;22.60;17.40
68217;DHT22;55037;52.354;4.992;2023-04-03T15:36:50;22.60;17.40
68217;DHT22;55037;52.354;4.992;2023-04-03T15:39:20;22.40;17.50
68217;DHT22;55037;52.354;4.992;2023-04-03T15:41:48;22.10;17.80
68217;DHT22;55037;52.354;4.992;2023-04-03T15:44:15;22.00;18.10
68217;DHT22;55037;52.354;4.992;2023-04-03T15:46:46;22.00;17.90
68217;DHT22;55037;52.354;4.992;2023-04-03T15:49:14;22.00;18.00
68217;DHT22;55037;52.354;4.992;2023-04-03T15:51:41;21.90;18.40
68217;DHT22;55037;52.354;4.992;2023-04-03T15:54:09;21.90;18.60
68217;DHT22;55037;52.354;4.992;2023-04-03T15:56:36;21.60;17.80
68217;DHT22;55037;52.354;4.992;2023-04-03T15:59:03;21.60;18.60
68217;DHT22;55037;52.354;4.992;2023-04-03T16:01:31;21.50;18.80
68217;DHT22;55037;52.354;4.992;2023-04-03T16:03:58;21.40;19.20
68217;DHT22;55037;52.354;4.992;2023-04-03T16:06:26;21.20;19.10
68217;DHT22;55037;52.354;4.992;2023-04-03T16:08:56;21.00;19.00
68217;DHT22;55037;52.354;4.992;2023-04-03T16:11:25;20.80;19.10
68217;DHT22;55037;52.354;4.992;2023-04-03T16:13:53;20.70;19.30
68217;DHT22;55037;52.354;4.992;2023-04-03T16:16:22;20.80;18.80
68217;DHT22;55037;52.354;4.992;2023-04-03T16:18:50;20.70;19.50
68217;DHT22;55037;52.354;4.992;2023-04-03T16:21:18;20.80;19.60
68217;DHT22;55037;52.354;4.992;2023-04-03T16:23:45;20.60;19.50
68217;DHT22;55037;52.354;4.992;2023-04-03T16:26:13;20.50;19.80
68217;DHT22;55037;52.354;4.992;2023-04-03T16:28:41;20.40;19.80
68217;DHT22;55037;52.354;4.992;2023-04-03T16:31:08;20.30;20.00
68217;DHT22;55037;52.354;4.992;2023-04-03T16:33:36;20.00;20.10
68217;DHT22;55037;52.354;4.992;2023-04-03T16:36:04;19.90;20.20
68217;DHT22;55037;52.354;4.992;2023-04-03T16:38:32;19.80;20.70
68217;DHT22;55037;52.354;4.992;2023-04-03T16:40:59;19.90;21.30
68217;DHT22;55037;52.354;4.992;2023-04-03T16:43:32;19.90;21.50
68217;DHT22;55037;52.354;4.992;2023-04-03T16:45:59;19.80;21.50
68217;DHT22;55037;52.354;4.992;2023-04-03T16:48:29;19.50;21.80
68217;DHT22;55037;52.354;4.992;2023-04-03T16:50:57;19.50;22.00
68217;DHT22;55037;52.354;4.992;2023-04-03T16:53:25;19.30;22.00
68217;DHT22;55037;52.354;4.992;2023-04-03T16:55:52;19.00;22.30
68217;DHT22;55037;52.354;4.992;2023-04-03T16:58:21;18.80;22.30
68217;DHT22;55037;52.354;4.992;2023-04-03T17:00:50;18.50;22.60
68217;DHT22;55037;52.354;4.992;2023-04-03T17:03:18;18.30;22.80
68217;DHT22;55037;52.354;4.992;2023-04-03T17:05:47;18.00;23.00
68217;DHT22;55037;52.354;4.992;2023-04-03T17:08:17;17.80;23.10
68217;DHT22;55037;52.354;4.992;2023-04-03T17:10:44;17.60;23.50
68217;DHT22;55037;52.354;4.992;2023-04-03T17:13:12;17.60;23.70
68217;DHT22;55037;52.354;4.992;2023-04-03T17:15:39;17.40;23.80
68217;DHT22;55037;52.354;4.992;2023-04-03T17:18:07;17.10;24.10
68217;DHT22;55037;52.354;4.992;2023-04-03T17:20:35;16.80;24.50
68217;DHT22;55037;52.354;4.992;2023-04-03T17:23:05;16.30;24.80
68217;DHT22;55037;52.354;4.992;2023-04-03T17:25:32;15.90;25.40
68217;DHT22;55037;52.354;4.992;2023-04-03T17:27:59;15.60;26.00
68217;DHT22;55037;52.354;4.992;2023-04-03T17:30:27;15.50;26.30
68217;DHT22;55037;52.354;4.992;2023-04-03T17:32:54;15.30;27.30
68217;DHT22;55037;52.354;4.992;2023-04-03T17:35:22;15.20;26.20
68217;DHT22;55037;52.354;4.992;2023-04-03T17:37:49;14.90;26.30
68217;DHT22;55037;52.354;4.992;2023-04-03T17:40:16;14.70;26.60
68217;DHT22;55037;52.354;4.992;2023-04-03T17:42:44;14.50;26.80
68217;DHT22;55037;52.354;4.992;2023-04-03T17:45:12;14.20;27.10
68217;DHT22;55037;52.354;4.992;2023-04-03T17:47:39;14.10;27.30
68217;DHT22;55037;52.354;4.992;2023-04-03T17:50:07;13.90;27.80
68217;DHT22;55037;52.354;4.992;2023-04-03T17:52:34;13.70;28.40
68217;DHT22;55037;52.354;4.992;2023-04-03T17:55:02;13.60;28.60